Dog Valley, California Weather observations

Data are for 10 minute period ending at time listed.
 Day   Time    Ave.   Ave.  Ave.  Vector   Max.   Total    Solar   
  of    of     Air    Rel.  Wind   Wind    Wind  Precip.   Rad.    
Year   Day     Temp.  Hum.  Speed  Dir.    Gust                    
2016   (PST)    F      %     mph   deg.    mph     in.     W/m2    
------------------------------------------------------------------- 
 210    1:00   59.0    39    0.0   335      5.0    5.22       0  
 210    2:00   58.0    45    0.0   302      2.0    5.22       0  
 210    3:00   56.0    43    0.0   309      1.0    5.22       0  
 210    4:00   55.0    53    0.0   276      2.0    5.22       0  
 210    5:00   53.0    56    0.0   276      1.0    5.22       0  
 210    6:00   53.0    60    0.0   276      1.0    5.22      13  
 210    7:00   62.0    52    0.0   251      3.0    5.22      91  
 210    8:00   75.0    35    1.0   175      5.0    5.22     103  
 210    9:00   86.0    21    1.0    58      4.0    5.22     429  
 210   10:00   90.0    18    2.0   117      6.0    5.22     746  
 210   11:00   93.0    18    2.0   129      6.0    5.22     872  
 210   12:00   95.0    16    1.0   176      7.0    5.22     926  
 210   13:00   96.0    17    3.0   149      7.0    5.22     820  
 210   14:00   98.0    15    2.0   185      7.0    5.22     941  
 210   15:00   97.0    16    2.0   167      8.0    5.22     630  
 210   16:00   94.0    18    2.0   309      8.0    5.22     393  
 210   17:00   91.0    20    5.0   337     14.0    5.22     374  
 210   18:00   79.0    32    5.0   112     11.0    5.22     308  
 210   19:00   79.0    32    0.0   251      7.0    5.22      57  
 210   20:00   70.0    55    1.0   265      2.0    5.22       5  
 210   21:00   70.0    60    0.0    55      2.0    5.22       0  
 210   22:00   67.0    47    0.0   277      2.0    5.22       0  
 210   23:00   67.0    48    1.0   286      7.0    5.22       0  
 211    0:00   63.0    52    0.0   273      5.0    5.22       0  

Return to Dog Valley, California graphs page.


Western Regional Climate Center,wrcc@dri.edu